Anderson, AL

10:24 PM CST on March 03, 2015 (GMT -0600)
APRSWXNET Rogersville AL US | Change Station
CLOSE
Current Station
Personal Weather Station
Location: Rogersville, AL
Elevation: 705 ft
Nearby Weather Stations
Active Advisory: Winter Storm Watch

Elev 705 ft 34.84 °N, 87.28 °W | Updated 26 minutes ago

Overcast
Overcast
64 °F
Feels Like 64 °F
N
9
Wind Variable Wind from SSW
Gusts 20.0 mph

Today
High -- | Low -- °F
--% Chance of Precip.
Yesterday
High -- | Low -- °F
Precip. -- in
6:16 AM 5:46 PM
Waxing Gibbous, 98% visible
Pressure 29.95 in
Visibility 10.0 miles
Clouds Scattered Clouds 1600 ft
Dew Point 63 °F
Humidity 96%
Rainfall 0.02 in
Snow Depth Not available.
UV 0 out of 12
Pollen 3.30 out of 12
Air Quality Not available.
Flu Activity Not available.
METAR KMSL 040353Z AUTO 20013KT 10SM SCT016 19/16 A2996 RMK AO2 SLP141 P0001 T01940161

More Conditions Fewer Conditions

Pressure 29.95 in
Visibility 10.0 miles
Clouds Scattered Clouds 1600 ft
Dew Point 63 °F
Humidity 96%
Rainfall 0.02 in
Snow Depth Not available.
UV 0 out of 12
Pollen 3.30 out of 12
Air Quality Not available.
Flu Activity Not available.
METAR KMSL 040353Z AUTO 20013KT 10SM SCT016 19/16 A2996 RMK AO2 SLP141 P0001 T01940161

More Conditions Fewer Conditions

10-Day Weather Forecast

Almanac

Astronomy

Mar. 03, 2015 Rise Set
Actual Time
Civil Twilight
Nautical Twilight
Astronomical Twilight
Moon
Length of Visible Light
Length of Day
Tomorrow will be .
, % of the Moon is Illuminated

Today's Extremes

State Highs State Lows

Community

WunderPhotos

Upload Photos

1,802,383 photos uploaded!

WunderBlogs® & News

Nearby

Air Quality

  Air Quality AQ Index Pollutant
Not available.

Snow Depth

Station Depth Elevation

Earthquake Activity

City Distance Mag. Time & Date
Minimum magnitude displayed is 2.5.

Coastal Water Temperatures

Place Temperature

Nearby Weather Stations

Winter Storm Watch
Statement as of 3:05 PM CST on March 03, 2015

... Winter Storm Watch in effect from late Wednesday night through
Thursday afternoon...

The National Weather Service in Huntsville has issued a Winter
Storm Watch... which is in effect from late Wednesday night
through Thursday afternoon.

* Timing and areas affected... late Wednesday night through Thursday
afternoon across Lauderdale... Colbert... Franklin
al... Lawrence... Limestone... Moore... Lincoln... and Franklin TN
counties.

* Accumulations... ice accumulations between one quarter to three
tenths of an inch are likely.

* Impacts... widespread hazardous traveling conditions are likely
across northwest Alabama and southern middle Tennessee due to the
ice accumulations on roads and bridges.

Precautionary/preparedness actions...

A Winter Storm Watch means there is a potential for significant
snow... sleet... or ice accumulations that may impact travel.
Continue to monitor the latest forecasts.